Woomera, Australia
Current Conditions -  °F | °C
As of 8:00 PM on Friday 24 Oct 2014 (Local Time) from YPWR Reporting Station
Clear Clear  
Wind Chill: 93°   Ceiling: Unl
Heat Index: 93°   Visibility: 6mi
Dew Point: 28°   Wind: 14mph
Humidity: 10%   Direction: 360°N
Pressure: 29.88"   Gusts: NA
Location:  31.2°S, 136.82°E
Report Text: YPWR 241000Z AUTO 36012KT 9999 // NCD 34/M02 Q1012
Loading
Personal Weather Stations






























Interactive Weather Map
Tropical Storm Tracking
New forecast layout! Learn more

10-Day Weather Forecast

Advertisements
Track Severe Weather on mobile